Feierabendflüge


Ab Montag 26. März 2108 planen wir jeweils um 17.00h - T/O - einen Aus"Flug" je nach Wunsch der Teilnehmer.

 

Ziel ist es gemeinsam diverse Flugplätze zu besuchen oder einfach einen Rundflug zu machen. Es hat viele Flugplätze mit netten Beizen und guten Essen.

 

Die Verantwortung für eine korrekte Flugdurchführung liegt immer in der Verantwortung des PIC.

 

Wir werden versuchen unsere Flotte jeweils zu diesen Terminen zur Verfügung zu haben. Wir freuen uns selbstverständlich auch über Gäste mit oder ohne eigene Flugzeuge.

 

Anmeldungen bitte unter Mail

 

Wir hoffen auf Euer reges Interesse


Datum Vorschlag für Ziele / Routen Anm.
26. März Ecuvillens  
02. April Birrfeld  
09. April Gruyères / Ecuvillens  
16. Bressaucourt  
23. wegen Schlechtwetter abgesagt  
30. 301050Z 24022G33KT CAVOK 15/03 Q1008  
07. Mai

Fricktal-Schupfart

 
14. abgesagt  
28. Les Eplatures  
04. Juni abgesagt wegen Gewitter  fix
11. Wangen-Lachen  
18. Bremgarten - T/O 14.30h  fix
25. abgesagt  
02. Juli Bex  
09. Buochs - mit Grillieren - T/O 16.15h  fix
16. Yverdon  
23. LSZP-LFSP-LFLK-LFLI-LSZP  
30. Münster  fix
06. August Local  
13. Kägiswil  
20. Wangen-Lachen  
27. Donaueschingen - T/O 15.00h  
03. September Locarno - T/O 15.00h  
10.    
17.    
24.    
01. Oktober    
08.    
15.